createdAt,value
2017-11-16T00:01:23.004Z,48.87
2017-11-16T00:03:50.497Z,52.67
2017-11-16T00:06:18.122Z,48.60
2017-11-16T00:08:45.654Z,53.70
2017-11-16T00:11:13.187Z,51.13
2017-11-16T00:13:40.792Z,56.37
2017-11-16T00:16:09.077Z,56.70
2017-11-16T00:18:37.415Z,54.97
2017-11-16T00:21:04.907Z,44.43
2017-11-16T00:23:32.479Z,49.63
2017-11-16T00:26:00.801Z,50.47
2017-11-16T00:28:28.299Z,66.60
2017-11-16T00:30:55.800Z,51.93
2017-11-16T00:33:24.104Z,67.80
2017-11-16T00:35:52.122Z,58.37
2017-11-16T00:38:19.659Z,59.47
2017-11-16T00:40:47.343Z,53.50
2017-11-16T00:43:14.871Z,66.67
2017-11-16T00:45:42.388Z,69.77
2017-11-16T00:48:09.914Z,58.90
2017-11-16T00:50:37.436Z,59.07
2017-11-16T00:53:05.768Z,59.83
2017-11-16T00:55:33.452Z,56.43
2017-11-16T00:58:01.407Z,59.17
2017-11-16T01:00:28.938Z,52.07
2017-11-16T01:02:58.438Z,53.53
2017-11-16T01:05:26.081Z,55.13
2017-11-16T01:07:53.635Z,49.67
2017-11-16T01:10:21.198Z,55.67
2017-11-16T01:12:48.724Z,54.53
2017-11-16T01:15:16.241Z,52.77
2017-11-16T01:17:44.515Z,47.20
2017-11-16T01:20:12.057Z,45.53
2017-11-16T01:22:39.569Z,57.80
2017-11-16T01:25:07.092Z,55.93
2017-11-16T01:27:34.590Z,54.30
2017-11-16T01:30:02.875Z,61.07
2017-11-16T01:32:30.389Z,53.40
2017-11-16T01:34:57.959Z,50.00
2017-11-16T01:37:25.613Z,50.93
2017-11-16T01:39:53.112Z,57.03
2017-11-16T01:42:21.412Z,47.40
2017-11-16T01:44:49.688Z,42.17
2017-11-16T01:47:17.196Z,46.10
2017-11-16T01:49:44.768Z,51.60
2017-11-16T01:52:12.263Z,46.83
2017-11-16T01:54:40.582Z,46.07
2017-11-16T01:57:08.209Z,54.07
2017-11-16T01:59:35.748Z,50.87
2017-11-16T02:02:03.283Z,45.13
2017-11-16T02:04:30.783Z,51.43
2017-11-16T02:06:58.321Z,54.83
2017-11-16T02:09:25.825Z,47.97
2017-11-16T02:11:53.346Z,52.90
2017-11-16T02:14:20.848Z,51.93
2017-11-16T02:16:48.384Z,48.83
2017-11-16T02:19:15.915Z,43.90
2017-11-16T02:21:43.435Z,47.73
2017-11-16T02:24:10.941Z,44.33
2017-11-16T02:26:38.663Z,49.90
2017-11-16T02:29:06.204Z,44.37
2017-11-16T02:31:33.765Z,45.50
2017-11-16T02:34:01.392Z,45.93
2017-11-16T02:36:28.924Z,45.30
2017-11-16T02:38:56.428Z,42.50
2017-11-16T02:41:23.977Z,37.47
2017-11-16T02:43:51.576Z,44.10
2017-11-16T02:46:19.126Z,45.37
2017-11-16T02:48:46.702Z,41.50
2017-11-16T02:51:14.236Z,49.00
2017-11-16T02:53:41.792Z,41.73
2017-11-16T02:56:10.059Z,37.60
2017-11-16T02:58:37.599Z,44.63
2017-11-16T03:01:05.131Z,35.47
2017-11-16T03:03:32.677Z,44.50
2017-11-16T03:06:00.192Z,43.90
2017-11-16T03:08:27.743Z,48.70
2017-11-16T03:10:55.238Z,49.80
2017-11-16T03:13:22.767Z,48.90
2017-11-16T03:15:50.308Z,41.00
2017-11-16T03:18:17.809Z,44.00
2017-11-16T03:20:45.309Z,45.90
2017-11-16T03:23:13.606Z,43.80
2017-11-16T03:25:41.101Z,50.43
2017-11-16T03:28:08.887Z,39.40
2017-11-16T03:30:36.408Z,45.77
2017-11-16T03:33:03.984Z,45.90
2017-11-16T03:35:31.556Z,45.30
2017-11-16T03:37:59.049Z,46.33
2017-11-16T03:40:26.540Z,42.90
2017-11-16T03:42:54.932Z,42.37
2017-11-16T03:45:22.444Z,44.07
2017-11-16T03:47:49.970Z,41.73
2017-11-16T03:50:17.487Z,40.93
2017-11-16T03:52:45.026Z,38.67
2017-11-16T03:55:12.539Z,48.40
2017-11-16T03:57:40.808Z,36.27
2017-11-16T04:00:08.352Z,39.47
2017-11-16T04:02:35.856Z,46.30
2017-11-16T04:05:04.142Z,36.37
2017-11-16T04:07:31.661Z,47.63
2017-11-16T04:09:59.212Z,39.63
2017-11-16T04:12:26.895Z,44.47
2017-11-16T04:14:54.452Z,38.30
2017-11-16T04:17:21.957Z,48.40
2017-11-16T04:19:49.468Z,49.87
2017-11-16T04:22:16.990Z,39.73
2017-11-16T04:24:44.516Z,45.80
2017-11-16T04:27:12.114Z,42.60
2017-11-16T04:29:40.386Z,40.43
2017-11-16T04:32:08.660Z,38.83
2017-11-16T04:34:36.199Z,46.67
2017-11-16T04:37:03.695Z,38.10
2017-11-16T04:39:31.984Z,45.37
2017-11-16T04:42:00.240Z,40.97
2017-11-16T04:44:27.775Z,39.20
2017-11-16T04:46:55.279Z,37.63
2017-11-16T04:49:23.569Z,59.27
2017-11-16T04:51:51.867Z,56.43
2017-11-16T04:54:19.400Z,54.30
2017-11-16T04:56:46.904Z,53.00
2017-11-16T04:59:14.541Z,46.77
2017-11-16T05:01:42.068Z,42.30
2017-11-16T05:04:09.737Z,38.40
2017-11-16T05:06:37.252Z,46.93
2017-11-16T05:09:04.823Z,46.13
2017-11-16T05:11:32.344Z,44.63
2017-11-16T05:13:59.853Z,39.20
2017-11-16T05:16:27.408Z,53.37
2017-11-16T05:18:54.960Z,43.23
2017-11-16T05:21:23.269Z,41.03
2017-11-16T05:23:50.776Z,59.77
2017-11-16T05:26:18.323Z,46.97
2017-11-16T05:28:45.811Z,48.27
2017-11-16T05:31:13.375Z,43.27
2017-11-16T05:33:40.885Z,39.67
2017-11-16T05:36:08.377Z,40.33
2017-11-16T05:38:35.917Z,48.77
2017-11-16T05:41:03.469Z,47.13
2017-11-16T05:43:30.972Z,40.13
2017-11-16T05:45:58.533Z,42.00
2017-11-16T05:48:26.021Z,41.30
2017-11-16T05:50:54.285Z,40.13
2017-11-16T05:53:21.817Z,38.30
2017-11-16T05:55:49.424Z,41.23
2017-11-16T05:58:17.128Z,31.00
2017-11-16T06:00:44.628Z,33.60
2017-11-16T06:03:12.208Z,29.37
2017-11-16T06:05:39.822Z,33.60
2017-11-16T06:08:07.365Z,36.00
2017-11-16T06:10:35.625Z,33.27
2017-11-16T06:13:03.275Z,32.20
2017-11-16T06:15:30.851Z,36.43
2017-11-16T06:17:58.351Z,36.97
2017-11-16T06:20:26.660Z,34.23
2017-11-16T06:22:54.227Z,24.87
2017-11-16T06:25:21.775Z,33.00
2017-11-16T06:27:49.267Z,33.20
2017-11-16T06:30:16.822Z,33.30
2017-11-16T06:32:44.373Z,32.57
2017-11-16T06:35:11.928Z,38.37
2017-11-16T06:37:39.426Z,36.30
2017-11-16T06:40:06.968Z,35.90
2017-11-16T06:42:34.468Z,45.70
2017-11-16T06:45:01.983Z,34.07
2017-11-16T06:47:29.550Z,36.53
2017-11-16T06:49:57.036Z,40.30
2017-11-16T06:52:24.576Z,38.23
2017-11-16T06:54:52.088Z,36.37
2017-11-16T06:57:19.640Z,44.30
2017-11-16T06:59:47.146Z,47.60
2017-11-16T07:02:14.782Z,30.80
2017-11-16T07:04:42.319Z,37.50
2017-11-16T07:07:09.845Z,39.87
2017-11-16T07:09:38.159Z,39.57
2017-11-16T07:12:05.669Z,43.67
2017-11-16T07:14:33.948Z,38.30
2017-11-16T07:17:01.489Z,38.63
2017-11-16T07:19:29.021Z,42.13
2017-11-16T07:21:56.573Z,42.97
2017-11-16T07:24:24.074Z,35.33
2017-11-16T07:26:51.601Z,44.30
2017-11-16T07:29:19.125Z,39.70
2017-11-16T07:31:47.435Z,33.40
2017-11-16T07:34:14.977Z,40.73
2017-11-16T07:36:43.249Z,51.80
2017-11-16T07:39:10.763Z,43.03
2017-11-16T07:41:38.300Z,41.60
2017-11-16T07:44:06.573Z,29.90
2017-11-16T07:46:34.899Z,32.73
2017-11-16T07:49:02.397Z,33.93
2017-11-16T07:51:29.945Z,25.83
2017-11-16T07:53:57.475Z,19.23
2017-11-16T07:56:25.016Z,26.93
2017-11-16T07:58:53.271Z,24.40
2017-11-16T08:01:20.814Z,25.23
2017-11-16T08:03:48.324Z,21.70
2017-11-16T08:06:15.928Z,23.10
2017-11-16T08:08:43.565Z,23.30
2017-11-16T08:11:11.118Z,19.00
2017-11-16T08:13:39.437Z,20.70
2017-11-16T08:16:06.957Z,21.27
2017-11-16T08:18:35.293Z,18.33
2017-11-16T08:21:02.840Z,20.87
2017-11-16T08:23:30.363Z,25.83
2017-11-16T08:25:58.639Z,17.77
2017-11-16T08:28:26.201Z,21.83
2017-11-16T08:30:54.473Z,19.57
2017-11-16T08:33:22.124Z,18.83
2017-11-16T08:35:49.752Z,21.07
2017-11-16T08:38:17.287Z,19.43
2017-11-16T08:40:45.557Z,18.67
2017-11-16T08:43:13.115Z,20.40
2017-11-16T08:45:40.609Z,20.57
2017-11-16T08:48:08.912Z,20.37
2017-11-16T08:50:37.225Z,19.93
2017-11-16T08:53:04.752Z,22.73
2017-11-16T08:55:32.272Z,18.93
2017-11-16T08:57:59.895Z,21.90
2017-11-16T09:00:27.397Z,22.60
2017-11-16T09:02:56.441Z,21.77
2017-11-16T09:05:23.972Z,20.97
2017-11-16T09:07:52.260Z,26.10
2017-11-16T09:10:20.596Z,23.03
2017-11-16T09:12:48.092Z,24.60
2017-11-16T09:15:15.663Z,21.00
2017-11-16T09:17:44.078Z,18.50
2017-11-16T09:20:11.575Z,22.37
2017-11-16T09:22:39.121Z,19.60
2017-11-16T09:25:06.650Z,19.03
2017-11-16T09:27:34.956Z,18.10
2017-11-16T09:30:02.506Z,24.60
2017-11-16T09:32:30.034Z,22.03
2017-11-16T09:34:57.540Z,22.47
2017-11-16T09:37:25.086Z,18.60
2017-11-16T09:39:53.338Z,20.47
2017-11-16T09:42:20.831Z,22.63
2017-11-16T09:44:49.119Z,30.70
2017-11-16T09:47:16.625Z,24.93
2017-11-16T09:49:44.165Z,15.60
2017-11-16T09:52:11.714Z,22.53
2017-11-16T09:54:39.213Z,18.93
2017-11-16T09:57:06.770Z,21.60
2017-11-16T09:59:34.267Z,21.67
2017-11-16T10:02:01.756Z,21.73
2017-11-16T10:04:29.291Z,21.67
2017-11-16T10:06:56.787Z,22.40
2017-11-16T10:09:24.329Z,23.07
2017-11-16T10:11:52.587Z,24.30
2017-11-16T10:14:20.116Z,23.57
2017-11-16T10:16:47.616Z,14.87
2017-11-16T10:19:15.112Z,19.50
2017-11-16T10:21:43.412Z,24.50
2017-11-16T10:24:10.911Z,17.70
2017-11-16T10:26:38.453Z,16.90
2017-11-16T10:29:05.956Z,17.13
2017-11-16T10:31:33.475Z,21.37
2017-11-16T10:34:01.108Z,19.80
2017-11-16T10:36:29.438Z,17.20
2017-11-16T10:38:56.943Z,19.80
2017-11-16T10:41:24.487Z,17.37
2017-11-16T10:43:51.991Z,20.07
2017-11-16T10:46:19.533Z,21.47
2017-11-16T10:48:47.032Z,21.43
2017-11-16T10:51:14.533Z,17.30
2017-11-16T10:53:42.100Z,17.50
2017-11-16T10:56:09.600Z,18.10
2017-11-16T10:58:37.915Z,21.60
2017-11-16T11:01:05.953Z,16.23
2017-11-16T11:03:34.235Z,19.37
2017-11-16T11:06:02.533Z,17.97
2017-11-16T11:08:30.068Z,15.93
2017-11-16T11:10:57.608Z,19.47
2017-11-16T11:13:25.152Z,16.90
2017-11-16T11:15:52.661Z,18.03
2017-11-16T11:18:20.174Z,25.53
2017-11-16T11:20:47.705Z,21.43
2017-11-16T11:23:15.240Z,18.77
2017-11-16T11:25:42.752Z,18.77
2017-11-16T11:28:10.245Z,19.40
2017-11-16T11:30:37.768Z,18.97
2017-11-16T11:33:05.267Z,19.50
2017-11-16T11:35:32.813Z,17.77
2017-11-16T11:38:00.344Z,17.53
2017-11-16T11:40:28.688Z,18.70
2017-11-16T11:42:56.380Z,19.30
2017-11-16T11:45:23.953Z,16.53
2017-11-16T11:47:52.203Z,19.67
2017-11-16T11:50:19.769Z,19.00
2017-11-16T11:52:47.261Z,18.40
2017-11-16T11:55:15.573Z,21.47
2017-11-16T11:57:43.068Z,24.13
2017-11-16T12:00:10.675Z,21.80
2017-11-16T12:02:38.940Z,19.30
2017-11-16T12:05:06.444Z,21.80
2017-11-16T12:07:33.988Z,18.07
2017-11-16T12:10:02.259Z,18.73
2017-11-16T12:12:30.719Z,21.83
2017-11-16T12:14:58.575Z,20.97
2017-11-16T12:17:26.149Z,19.90
2017-11-16T12:19:53.656Z,18.43
2017-11-16T12:22:21.148Z,23.60
2017-11-16T12:24:48.688Z,23.53
2017-11-16T12:27:16.191Z,17.73
2017-11-16T12:29:43.724Z,21.33
2017-11-16T12:32:11.238Z,19.37
2017-11-16T12:34:38.764Z,19.37
2017-11-16T12:37:06.265Z,26.40
2017-11-16T12:39:33.752Z,22.00
2017-11-16T12:42:02.065Z,18.70
2017-11-16T12:44:29.590Z,21.50
2017-11-16T12:46:57.887Z,17.10
2017-11-16T12:49:25.427Z,22.20
2017-11-16T12:51:52.978Z,17.90
2017-11-16T12:54:20.569Z,18.10
2017-11-16T12:56:48.825Z,19.17
2017-11-16T12:59:16.330Z,23.30
2017-11-16T13:01:43.916Z,20.63
2017-11-16T13:04:11.462Z,20.50
2017-11-16T13:06:38.980Z,19.60
2017-11-16T13:09:06.535Z,19.73
2017-11-16T13:11:34.024Z,22.90
2017-11-16T13:14:02.272Z,17.27
2017-11-16T13:16:29.801Z,17.43
2017-11-16T13:18:57.318Z,19.07
2017-11-16T13:21:24.828Z,18.93
2017-11-16T13:23:52.365Z,22.80
2017-11-16T13:26:20.629Z,23.20
2017-11-16T13:28:48.175Z,17.03
2017-11-16T13:31:15.664Z,22.17
2017-11-16T13:33:43.185Z,22.40
2017-11-16T13:36:10.712Z,17.27
2017-11-16T13:38:38.233Z,21.10
2017-11-16T13:41:05.730Z,21.13
2017-11-16T13:43:34.231Z,19.40
2017-11-16T13:46:01.765Z,19.70
2017-11-16T13:48:29.280Z,19.23
2017-11-16T13:50:56.793Z,23.53
2017-11-16T13:53:24.363Z,17.00
2017-11-16T13:55:52.908Z,19.93
2017-11-16T13:58:20.418Z,20.20
2017-11-16T14:00:48.722Z,21.93
2017-11-16T14:03:16.261Z,18.80
2017-11-16T14:05:43.767Z,21.90
2017-11-16T14:08:11.252Z,25.10
2017-11-16T14:10:38.777Z,20.97
2017-11-16T14:13:06.281Z,22.43
2017-11-16T14:15:33.844Z,23.20
2017-11-16T14:18:01.337Z,20.30
2017-11-16T14:20:30.551Z,25.27
2017-11-16T14:22:58.791Z,20.40
2017-11-16T14:25:26.508Z,22.07
2017-11-16T14:27:54.015Z,25.10
2017-11-16T14:30:21.561Z,25.53
2017-11-16T14:32:49.231Z,20.70
2017-11-16T14:35:16.783Z,20.90
2017-11-16T14:37:44.315Z,26.30
2017-11-16T14:40:12.623Z,25.67
2017-11-16T14:42:40.272Z,25.87
2017-11-16T14:45:07.816Z,19.80
2017-11-16T14:47:36.128Z,20.23
2017-11-16T14:50:03.647Z,21.63
2017-11-16T14:52:31.196Z,21.93
2017-11-16T14:54:58.709Z,23.03
2017-11-16T14:57:26.252Z,18.53
2017-11-16T14:59:53.759Z,26.80
2017-11-16T15:02:21.280Z,20.70
2017-11-16T15:04:49.591Z,20.83
2017-11-16T15:07:17.099Z,30.47
2017-11-16T15:09:44.709Z,21.20
2017-11-16T15:12:12.249Z,24.77
2017-11-16T15:14:39.789Z,21.60
2017-11-16T15:17:07.292Z,22.47
2017-11-16T15:19:35.558Z,21.00
2017-11-16T15:22:03.096Z,20.60
2017-11-16T15:24:30.611Z,25.87
2017-11-16T15:26:58.117Z,24.13
2017-11-16T15:29:25.714Z,20.30
2017-11-16T15:31:53.224Z,25.13
2017-11-16T15:34:20.765Z,22.20
2017-11-16T15:36:48.304Z,20.67
2017-11-16T15:39:15.844Z,24.57
2017-11-16T15:41:43.341Z,27.20
2017-11-16T15:44:11.609Z,24.57
2017-11-16T15:46:39.228Z,23.83
2017-11-16T15:49:06.782Z,24.03
2017-11-16T15:51:34.370Z,19.30
2017-11-16T15:54:01.940Z,23.90
2017-11-16T15:56:29.485Z,21.93
2017-11-16T15:58:56.978Z,25.20
2017-11-16T16:01:24.611Z,23.50
2017-11-16T16:03:52.112Z,22.43
2017-11-16T16:06:19.641Z,21.37
2017-11-16T16:08:47.184Z,19.40
2017-11-16T16:11:14.739Z,20.53
2017-11-16T16:13:43.021Z,26.10
2017-11-16T16:16:10.568Z,22.77
2017-11-16T16:18:38.874Z,21.80
2017-11-16T16:21:06.392Z,22.37
2017-11-16T16:23:33.955Z,22.87
2017-11-16T16:26:01.467Z,19.90
2017-11-16T16:28:28.963Z,21.50
2017-11-16T16:30:56.520Z,23.47
2017-11-16T16:33:24.032Z,32.00
2017-11-16T16:35:52.346Z,27.33
2017-11-16T16:38:19.984Z,27.90
2017-11-16T16:40:48.276Z,21.10
2017-11-16T16:43:17.369Z,25.40
2017-11-16T16:45:45.681Z,25.40
2017-11-16T16:48:13.177Z,25.80
2017-11-16T16:50:40.737Z,29.27
2017-11-16T16:53:08.270Z,25.27
2017-11-16T16:55:35.819Z,24.60
2017-11-16T16:58:03.356Z,24.57
2017-11-16T17:00:30.864Z,24.80
2017-11-16T17:02:59.131Z,28.17
2017-11-16T17:05:26.689Z,28.97
2017-11-16T17:07:54.188Z,27.73
2017-11-16T17:10:21.737Z,24.97
2017-11-16T17:12:49.261Z,33.97
2017-11-16T17:15:17.528Z,29.97
2017-11-16T17:17:45.069Z,29.43
2017-11-16T17:20:12.609Z,27.50
2017-11-16T17:22:40.186Z,37.33
2017-11-16T17:25:07.714Z,25.47
2017-11-16T17:27:35.256Z,28.30
2017-11-16T17:30:03.564Z,29.27
2017-11-16T17:32:31.060Z,33.27
2017-11-16T17:34:58.589Z,33.33
2017-11-16T17:37:26.138Z,33.73
2017-11-16T17:39:54.245Z,31.97
2017-11-16T17:42:21.777Z,32.97
2017-11-16T17:44:50.068Z,62.90
2017-11-16T17:50:11.006Z,37.10
2017-11-16T17:52:38.500Z,39.23
2017-11-16T17:55:06.052Z,31.33
2017-11-16T17:57:33.547Z,33.27
2017-11-16T18:00:01.047Z,31.10
2017-11-16T18:02:28.599Z,33.13
2017-11-16T18:04:57.052Z,34.53
2017-11-16T18:07:24.560Z,32.20
2017-11-16T18:09:52.116Z,37.67
2017-11-16T18:12:19.613Z,34.73
2017-11-16T18:14:47.120Z,36.17
2017-11-16T18:17:14.969Z,36.83
2017-11-16T18:19:42.509Z,38.73
2017-11-16T18:22:10.005Z,35.30
2017-11-16T18:24:37.549Z,36.47
2017-11-16T18:27:05.068Z,32.67
2017-11-16T18:29:32.888Z,30.40
2017-11-16T18:32:00.374Z,35.57
2017-11-16T18:34:27.891Z,33.93
2017-11-16T18:36:55.428Z,40.30
2017-11-16T18:39:22.941Z,36.20
2017-11-16T18:41:50.464Z,38.80
2017-11-16T18:44:18.012Z,37.40
2017-11-16T18:46:45.568Z,33.60
2017-11-16T18:49:13.835Z,39.67
2017-11-16T18:51:41.381Z,36.00
2017-11-16T18:54:08.870Z,34.20
2017-11-16T18:56:36.410Z,43.13
2017-11-16T18:59:04.226Z,35.23
2017-11-16T19:01:31.743Z,32.40
2017-11-16T19:03:59.266Z,32.40
2017-11-16T19:06:26.847Z,32.77
2017-11-16T19:08:54.358Z,35.23
2017-11-16T19:11:22.619Z,31.77
2017-11-16T19:13:50.156Z,37.30
2017-11-16T19:16:17.684Z,30.10
2017-11-16T19:18:45.214Z,36.77
2017-11-16T19:21:12.756Z,36.87
2017-11-16T19:23:40.248Z,30.43
2017-11-16T19:29:02.017Z,29.50
2017-11-16T19:31:29.546Z,33.80
2017-11-16T19:33:57.068Z,35.07
2017-11-16T19:36:24.616Z,34.17
2017-11-16T19:38:52.109Z,36.90
2017-11-16T19:41:19.617Z,34.53
2017-11-16T19:43:47.932Z,37.50
2017-11-16T19:46:15.437Z,32.60
2017-11-16T19:48:43.144Z,37.50
2017-11-16T19:51:10.677Z,48.57
2017-11-16T19:53:38.171Z,41.90
2017-11-16T19:56:05.789Z,43.40
2017-11-16T19:58:33.330Z,53.43
2017-11-16T20:01:00.834Z,45.63
2017-11-16T20:03:28.330Z,39.27
2017-11-16T20:05:55.896Z,37.17
2017-11-16T20:08:23.448Z,41.30
2017-11-16T20:10:51.703Z,37.77
2017-11-16T20:13:19.236Z,34.10
2017-11-16T20:15:47.011Z,34.37
2017-11-16T20:18:14.506Z,35.90
2017-11-16T20:20:42.049Z,33.33
2017-11-16T20:23:09.570Z,29.83
2017-11-16T20:25:37.379Z,38.50
2017-11-16T20:28:04.932Z,34.27
2017-11-16T20:30:32.455Z,32.97
2017-11-16T20:33:00.865Z,30.33
2017-11-16T20:35:28.360Z,29.87
2017-11-16T20:37:56.726Z,37.37
2017-11-16T20:40:41.006Z,33.93
2017-11-16T20:43:26.142Z,34.63
2017-11-16T20:45:59.502Z,27.90
2017-11-16T20:48:32.773Z,35.10
2017-11-16T20:54:02.829Z,34.40
2017-11-16T20:56:30.404Z,35.70
2017-11-16T20:58:57.989Z,35.57
2017-11-16T21:01:25.548Z,35.37
2017-11-16T21:03:53.105Z,41.50
2017-11-16T21:06:20.648Z,37.33
2017-11-16T21:08:48.207Z,33.47
2017-11-16T21:11:15.723Z,29.37
2017-11-16T21:13:43.229Z,32.93
2017-11-16T21:16:10.789Z,28.70
2017-11-16T21:18:38.288Z,30.13
2017-11-16T21:21:05.791Z,34.90
2017-11-16T21:23:33.325Z,30.57
2017-11-16T21:26:00.863Z,33.60
2017-11-16T21:28:28.352Z,28.80
2017-11-16T21:30:55.924Z,45.07
2017-11-16T21:33:23.423Z,35.27
2017-11-16T21:35:51.682Z,29.00
2017-11-16T21:38:19.233Z,32.90
2017-11-16T21:40:47.058Z,29.63
2017-11-16T21:43:14.612Z,31.40
2017-11-16T21:45:42.128Z,30.73
2017-11-16T21:48:09.685Z,27.40
2017-11-16T21:50:37.175Z,32.87
2017-11-16T21:53:04.671Z,31.87
2017-11-16T21:55:32.323Z,31.60
2017-11-16T21:58:00.622Z,36.03
2017-11-16T22:00:28.169Z,33.10
2017-11-16T22:02:56.430Z,36.20
2017-11-16T22:05:23.974Z,241.07
2017-11-16T22:07:51.528Z,54.20
2017-11-16T22:10:19.018Z,33.63
2017-11-16T22:12:46.524Z,38.60
2017-11-16T22:15:14.053Z,37.20
2017-11-16T22:17:42.321Z,32.90
2017-11-16T22:20:09.868Z,35.67
2017-11-16T22:22:37.371Z,35.47
2017-11-16T22:25:05.665Z,34.90
2017-11-16T22:27:33.504Z,37.33
2017-11-16T22:30:01.001Z,35.53
2017-11-16T22:32:28.776Z,36.03
2017-11-16T22:34:56.327Z,31.47
2017-11-16T22:37:23.837Z,36.03
2017-11-16T22:39:51.326Z,32.90
2017-11-16T22:42:18.868Z,37.30
2017-11-16T22:44:46.355Z,40.43
2017-11-16T22:47:14.635Z,40.20
2017-11-16T22:49:42.174Z,37.37
2017-11-16T22:52:09.674Z,34.43
2017-11-16T22:54:37.992Z,36.53
2017-11-16T22:57:05.485Z,38.30
2017-11-16T22:59:32.995Z,30.37
2017-11-16T23:02:00.533Z,46.57
2017-11-16T23:04:28.828Z,37.53
2017-11-16T23:06:57.121Z,40.20
2017-11-16T23:09:24.667Z,39.97
2017-11-16T23:11:52.946Z,38.90
2017-11-16T23:14:21.246Z,39.17
2017-11-16T23:16:48.779Z,38.43
2017-11-16T23:19:16.351Z,44.83
2017-11-16T23:21:44.617Z,38.43
2017-11-16T23:24:12.165Z,41.63
2017-11-16T23:26:39.671Z,34.50
2017-11-16T23:29:07.962Z,41.13
2017-11-16T23:31:35.465Z,37.17
2017-11-16T23:34:03.009Z,41.87
2017-11-16T23:36:30.513Z,40.20
2017-11-16T23:38:58.021Z,38.47
2017-11-16T23:41:25.556Z,43.93
2017-11-16T23:43:53.082Z,39.10
2017-11-16T23:46:20.615Z,37.50
2017-11-16T23:48:48.261Z,36.67
2017-11-16T23:51:16.566Z,38.87
2017-11-16T23:53:44.088Z,40.80
2017-11-16T23:56:11.661Z,42.03
2017-11-16T23:58:39.208Z,42.73
